sensor_id;sensor_type;location;lat;lon;timestamp;P1;durP1;ratioP1;P2;durP2;ratioP2
73841;SDS011;62184;52.006;5.924;2024-03-08T00:00:28;43.33;;;34.60;;
73841;SDS011;62184;52.006;5.924;2024-03-08T00:02:54;39.37;;;32.53;;
73841;SDS011;62184;52.006;5.924;2024-03-08T00:05:21;39.28;;;33.10;;
73841;SDS011;62184;52.006;5.924;2024-03-08T00:07:48;40.45;;;32.45;;
73841;SDS011;62184;52.006;5.924;2024-03-08T00:10:14;42.95;;;33.80;;
73841;SDS011;62184;52.006;5.924;2024-03-08T00:12:44;40.83;;;33.77;;
73841;SDS011;62184;52.006;5.924;2024-03-08T00:15:11;40.08;;;34.08;;
73841;SDS011;62184;52.006;5.924;2024-03-08T00:17:39;41.65;;;33.42;;
73841;SDS011;62184;52.006;5.924;2024-03-08T00:20:07;41.10;;;34.50;;
73841;SDS011;62184;52.006;5.924;2024-03-08T00:22:33;41.22;;;34.35;;
73841;SDS011;62184;52.006;5.924;2024-03-08T00:25:00;39.95;;;33.97;;
73841;SDS011;62184;52.006;5.924;2024-03-08T00:27:27;40.95;;;33.80;;
73841;SDS011;62184;52.006;5.924;2024-03-08T00:29:56;40.03;;;33.10;;
73841;SDS011;62184;52.006;5.924;2024-03-08T00:32:22;40.23;;;32.87;;
73841;SDS011;62184;52.006;5.924;2024-03-08T00:34:49;38.60;;;32.33;;
73841;SDS011;62184;52.006;5.924;2024-03-08T00:37:15;39.92;;;33.83;;
73841;SDS011;62184;52.006;5.924;2024-03-08T00:39:41;37.08;;;32.25;;
73841;SDS011;62184;52.006;5.924;2024-03-08T00:42:08;38.50;;;32.22;;
73841;SDS011;62184;52.006;5.924;2024-03-08T00:44:34;41.65;;;33.47;;
73841;SDS011;62184;52.006;5.924;2024-03-08T00:47:04;39.22;;;32.92;;
73841;SDS011;62184;52.006;5.924;2024-03-08T00:49:31;40.50;;;34.15;;
73841;SDS011;62184;52.006;5.924;2024-03-08T00:51:57;38.67;;;33.65;;
73841;SDS011;62184;52.006;5.924;2024-03-08T00:54:24;40.80;;;35.80;;
73841;SDS011;62184;52.006;5.924;2024-03-08T00:56:50;40.22;;;34.67;;
73841;SDS011;62184;52.006;5.924;2024-03-08T00:59:17;38.13;;;33.75;;
73841;SDS011;62184;52.006;5.924;2024-03-08T01:01:43;40.75;;;33.30;;
73841;SDS011;62184;52.006;5.924;2024-03-08T01:04:12;41.95;;;34.72;;
73841;SDS011;62184;52.006;5.924;2024-03-08T01:06:39;39.47;;;34.00;;
73841;SDS011;62184;52.006;5.924;2024-03-08T01:09:05;41.17;;;34.67;;
73841;SDS011;62184;52.006;5.924;2024-03-08T01:11:31;39.70;;;33.63;;
73841;SDS011;62184;52.006;5.924;2024-03-08T01:13:58;40.87;;;35.00;;
73841;SDS011;62184;52.006;5.924;2024-03-08T01:16:24;39.25;;;34.80;;
73841;SDS011;62184;52.006;5.924;2024-03-08T01:18:51;38.00;;;33.30;;
73841;SDS011;62184;52.006;5.924;2024-03-08T01:21:20;38.58;;;33.30;;
73841;SDS011;62184;52.006;5.924;2024-03-08T01:23:46;40.60;;;34.05;;
73841;SDS011;62184;52.006;5.924;2024-03-08T01:26:13;37.30;;;32.58;;
73841;SDS011;62184;52.006;5.924;2024-03-08T01:28:39;40.80;;;34.53;;
73841;SDS011;62184;52.006;5.924;2024-03-08T01:31:05;39.72;;;34.88;;
73841;SDS011;62184;52.006;5.924;2024-03-08T01:33:32;37.65;;;33.50;;
73841;SDS011;62184;52.006;5.924;2024-03-08T01:35:58;40.13;;;34.30;;
73841;SDS011;62184;52.006;5.924;2024-03-08T01:38:28;38.85;;;33.03;;
73841;SDS011;62184;52.006;5.924;2024-03-08T01:40:54;40.47;;;35.40;;
73841;SDS011;62184;52.006;5.924;2024-03-08T01:43:21;39.05;;;34.80;;
73841;SDS011;62184;52.006;5.924;2024-03-08T01:45:52;37.50;;;33.42;;
73841;SDS011;62184;52.006;5.924;2024-03-08T01:48:19;39.08;;;34.88;;
73841;SDS011;62184;52.006;5.924;2024-03-08T01:50:46;39.38;;;33.08;;
73841;SDS011;62184;52.006;5.924;2024-03-08T01:53:13;40.67;;;34.10;;
73841;SDS011;62184;52.006;5.924;2024-03-08T01:55:42;40.20;;;35.53;;
73841;SDS011;62184;52.006;5.924;2024-03-08T01:58:13;40.63;;;34.42;;
73841;SDS011;62184;52.006;5.924;2024-03-08T02:00:40;41.97;;;35.03;;
73841;SDS011;62184;52.006;5.924;2024-03-08T02:03:10;41.73;;;34.10;;
73841;SDS011;62184;52.006;5.924;2024-03-08T02:05:36;40.20;;;33.93;;
73841;SDS011;62184;52.006;5.924;2024-03-08T02:08:06;39.30;;;33.97;;
73841;SDS011;62184;52.006;5.924;2024-03-08T02:10:34;39.05;;;33.65;;
73841;SDS011;62184;52.006;5.924;2024-03-08T02:13:03;40.58;;;35.55;;
73841;SDS011;62184;52.006;5.924;2024-03-08T02:18:18;41.47;;;34.35;;
73841;SDS011;62184;52.006;5.924;2024-03-08T02:20:48;37.88;;;32.90;;
73841;SDS011;62184;52.006;5.924;2024-03-08T02:23:16;40.40;;;34.47;;
73841;SDS011;62184;52.006;5.924;2024-03-08T02:25:43;41.97;;;35.43;;
73841;SDS011;62184;52.006;5.924;2024-03-08T02:28:10;41.20;;;34.37;;
73841;SDS011;62184;52.006;5.924;2024-03-08T02:30:38;41.72;;;34.67;;
73841;SDS011;62184;52.006;5.924;2024-03-08T02:33:05;38.00;;;32.47;;
73841;SDS011;62184;52.006;5.924;2024-03-08T02:35:32;39.72;;;33.92;;
73841;SDS011;62184;52.006;5.924;2024-03-08T02:38:01;39.90;;;35.03;;
73841;SDS011;62184;52.006;5.924;2024-03-08T02:40:30;39.53;;;33.83;;
73841;SDS011;62184;52.006;5.924;2024-03-08T02:42:56;40.75;;;34.88;;
73841;SDS011;62184;52.006;5.924;2024-03-08T02:45:22;39.40;;;34.22;;
73841;SDS011;62184;52.006;5.924;2024-03-08T02:47:49;41.75;;;34.50;;
73841;SDS011;62184;52.006;5.924;2024-03-08T02:50:15;41.88;;;35.05;;
73841;SDS011;62184;52.006;5.924;2024-03-08T02:52:42;42.40;;;35.08;;
73841;SDS011;62184;52.006;5.924;2024-03-08T02:55:11;41.88;;;35.40;;
73841;SDS011;62184;52.006;5.924;2024-03-08T02:57:38;41.63;;;34.88;;
73841;SDS011;62184;52.006;5.924;2024-03-08T03:00:05;42.95;;;35.25;;
73841;SDS011;62184;52.006;5.924;2024-03-08T03:02:34;42.38;;;35.17;;
73841;SDS011;62184;52.006;5.924;2024-03-08T03:05:01;42.00;;;34.57;;
73841;SDS011;62184;52.006;5.924;2024-03-08T03:07:27;41.73;;;34.97;;
73841;SDS011;62184;52.006;5.924;2024-03-08T03:09:53;41.67;;;35.00;;
73841;SDS011;62184;52.006;5.924;2024-03-08T03:12:23;41.93;;;35.30;;
73841;SDS011;62184;52.006;5.924;2024-03-08T03:14:49;42.33;;;35.90;;
73841;SDS011;62184;52.006;5.924;2024-03-08T03:17:16;42.95;;;35.58;;
73841;SDS011;62184;52.006;5.924;2024-03-08T03:19:42;40.17;;;33.95;;
73841;SDS011;62184;52.006;5.924;2024-03-08T03:22:08;40.20;;;34.45;;
73841;SDS011;62184;52.006;5.924;2024-03-08T03:24:35;43.03;;;35.33;;
73841;SDS011;62184;52.006;5.924;2024-03-08T03:27:01;41.63;;;36.28;;
73841;SDS011;62184;52.006;5.924;2024-03-08T03:29:30;40.47;;;34.65;;
73841;SDS011;62184;52.006;5.924;2024-03-08T03:31:57;42.53;;;35.55;;
73841;SDS011;62184;52.006;5.924;2024-03-08T03:34:23;43.03;;;35.47;;
73841;SDS011;62184;52.006;5.924;2024-03-08T03:36:50;42.17;;;36.00;;
73841;SDS011;62184;52.006;5.924;2024-03-08T03:39:16;43.10;;;36.80;;
73841;SDS011;62184;52.006;5.924;2024-03-08T03:41:42;41.30;;;35.17;;
73841;SDS011;62184;52.006;5.924;2024-03-08T03:44:09;42.83;;;35.75;;
73841;SDS011;62184;52.006;5.924;2024-03-08T03:46:38;40.60;;;34.72;;
73841;SDS011;62184;52.006;5.924;2024-03-08T03:49:07;41.35;;;34.60;;
73841;SDS011;62184;52.006;5.924;2024-03-08T03:51:34;40.88;;;34.50;;
73841;SDS011;62184;52.006;5.924;2024-03-08T03:54:00;42.47;;;35.55;;
73841;SDS011;62184;52.006;5.924;2024-03-08T03:56:26;43.13;;;36.47;;
73841;SDS011;62184;52.006;5.924;2024-03-08T03:58:53;43.60;;;35.83;;
73841;SDS011;62184;52.006;5.924;2024-03-08T04:01:19;42.45;;;35.20;;
73841;SDS011;62184;52.006;5.924;2024-03-08T04:03:48;41.87;;;35.37;;
73841;SDS011;62184;52.006;5.924;2024-03-08T04:06:15;40.55;;;33.40;;
73841;SDS011;62184;52.006;5.924;2024-03-08T04:08:41;40.63;;;34.67;;
73841;SDS011;62184;52.006;5.924;2024-03-08T04:11:07;40.85;;;34.90;;
73841;SDS011;62184;52.006;5.924;2024-03-08T04:13:34;40.47;;;34.42;;
73841;SDS011;62184;52.006;5.924;2024-03-08T04:16:00;40.28;;;34.38;;
73841;SDS011;62184;52.006;5.924;2024-03-08T04:18:27;42.28;;;35.83;;
73841;SDS011;62184;52.006;5.924;2024-03-08T04:20:56;43.35;;;35.38;;
73841;SDS011;62184;52.006;5.924;2024-03-08T04:23:22;43.07;;;34.97;;
73841;SDS011;62184;52.006;5.924;2024-03-08T04:25:49;40.63;;;34.17;;
73841;SDS011;62184;52.006;5.924;2024-03-08T04:28:15;40.28;;;34.67;;
73841;SDS011;62184;52.006;5.924;2024-03-08T04:30:41;42.95;;;35.45;;
73841;SDS011;62184;52.006;5.924;2024-03-08T04:33:08;42.47;;;35.70;;
73841;SDS011;62184;52.006;5.924;2024-03-08T04:35:34;40.92;;;33.80;;
73841;SDS011;62184;52.006;5.924;2024-03-08T04:38:03;43.65;;;35.45;;
73841;SDS011;62184;52.006;5.924;2024-03-08T04:40:30;41.20;;;34.45;;
73841;SDS011;62184;52.006;5.924;2024-03-08T04:42:56;44.80;;;36.28;;
73841;SDS011;62184;52.006;5.924;2024-03-08T04:45:25;42.20;;;34.80;;
73841;SDS011;62184;52.006;5.924;2024-03-08T04:47:51;43.58;;;35.80;;
73841;SDS011;62184;52.006;5.924;2024-03-08T04:50:18;42.15;;;35.67;;
73841;SDS011;62184;52.006;5.924;2024-03-08T04:52:44;40.72;;;34.20;;
73841;SDS011;62184;52.006;5.924;2024-03-08T04:55:13;42.83;;;34.83;;
73841;SDS011;62184;52.006;5.924;2024-03-08T04:57:40;46.22;;;36.50;;
73841;SDS011;62184;52.006;5.924;2024-03-08T05:00:06;42.40;;;35.40;;
73841;SDS011;62184;52.006;5.924;2024-03-08T05:02:34;41.97;;;36.80;;
73841;SDS011;62184;52.006;5.924;2024-03-08T05:05:01;43.08;;;35.50;;
73841;SDS011;62184;52.006;5.924;2024-03-08T05:07:27;41.75;;;35.80;;
73841;SDS011;62184;52.006;5.924;2024-03-08T05:09:54;43.63;;;35.28;;
73841;SDS011;62184;52.006;5.924;2024-03-08T05:12:23;42.92;;;36.60;;
73841;SDS011;62184;52.006;5.924;2024-03-08T05:14:49;41.70;;;36.10;;
73841;SDS011;62184;52.006;5.924;2024-03-08T05:17:15;44.70;;;37.37;;
73841;SDS011;62184;52.006;5.924;2024-03-08T05:19:42;45.78;;;38.63;;
73841;SDS011;62184;52.006;5.924;2024-03-08T05:22:09;43.72;;;37.55;;
73841;SDS011;62184;52.006;5.924;2024-03-08T05:24:35;46.65;;;38.70;;
73841;SDS011;62184;52.006;5.924;2024-03-08T05:27:02;42.67;;;37.72;;
73841;SDS011;62184;52.006;5.924;2024-03-08T05:29:31;45.08;;;37.35;;
73841;SDS011;62184;52.006;5.924;2024-03-08T05:31:58;43.53;;;36.95;;
73841;SDS011;62184;52.006;5.924;2024-03-08T05:34:24;43.22;;;36.85;;
73841;SDS011;62184;52.006;5.924;2024-03-08T05:36:51;41.78;;;35.35;;
73841;SDS011;62184;52.006;5.924;2024-03-08T05:39:17;44.42;;;36.97;;
73841;SDS011;62184;52.006;5.924;2024-03-08T05:41:44;46.45;;;38.75;;
73841;SDS011;62184;52.006;5.924;2024-03-08T05:44:12;43.27;;;36.23;;
73841;SDS011;62184;52.006;5.924;2024-03-08T05:46:41;44.58;;;36.78;;
73841;SDS011;62184;52.006;5.924;2024-03-08T05:49:08;41.88;;;35.60;;
73841;SDS011;62184;52.006;5.924;2024-03-08T05:51:35;42.50;;;37.57;;
73841;SDS011;62184;52.006;5.924;2024-03-08T05:54:04;45.22;;;37.55;;
73841;SDS011;62184;52.006;5.924;2024-03-08T05:56:33;44.50;;;36.63;;
73841;SDS011;62184;52.006;5.924;2024-03-08T05:58:59;42.88;;;35.15;;
73841;SDS011;62184;52.006;5.924;2024-03-08T06:01:26;43.60;;;34.67;;
73841;SDS011;62184;52.006;5.924;2024-03-08T06:03:56;43.30;;;35.70;;
73841;SDS011;62184;52.006;5.924;2024-03-08T06:06:23;43.37;;;34.93;;
73841;SDS011;62184;52.006;5.924;2024-03-08T06:08:50;43.15;;;33.92;;
73841;SDS011;62184;52.006;5.924;2024-03-08T06:11:17;43.67;;;34.92;;
73841;SDS011;62184;52.006;5.924;2024-03-08T06:13:45;43.60;;;34.35;;
73841;SDS011;62184;52.006;5.924;2024-03-08T06:16:12;43.87;;;33.60;;
73841;SDS011;62184;52.006;5.924;2024-03-08T06:18:38;42.65;;;33.90;;
73841;SDS011;62184;52.006;5.924;2024-03-08T06:21:07;42.03;;;33.53;;
73841;SDS011;62184;52.006;5.924;2024-03-08T06:23:35;43.05;;;34.00;;
73841;SDS011;62184;52.006;5.924;2024-03-08T06:26:01;42.15;;;33.53;;
73841;SDS011;62184;52.006;5.924;2024-03-08T06:28:28;45.63;;;35.17;;
73841;SDS011;62184;52.006;5.924;2024-03-08T06:30:54;43.20;;;33.75;;
73841;SDS011;62184;52.006;5.924;2024-03-08T06:33:20;44.67;;;34.30;;
73841;SDS011;62184;52.006;5.924;2024-03-08T06:35:47;43.08;;;34.67;;
73841;SDS011;62184;52.006;5.924;2024-03-08T06:38:16;41.63;;;34.17;;
73841;SDS011;62184;52.006;5.924;2024-03-08T06:40:42;42.30;;;34.53;;
73841;SDS011;62184;52.006;5.924;2024-03-08T06:43:09;44.97;;;35.08;;
73841;SDS011;62184;52.006;5.924;2024-03-08T06:45:35;42.60;;;35.10;;
73841;SDS011;62184;52.006;5.924;2024-03-08T06:48:01;44.47;;;36.35;;
73841;SDS011;62184;52.006;5.924;2024-03-08T06:50:28;41.50;;;33.20;;
73841;SDS011;62184;52.006;5.924;2024-03-08T06:52:55;43.05;;;34.33;;
73841;SDS011;62184;52.006;5.924;2024-03-08T06:55:24;42.80;;;35.30;;
73841;SDS011;62184;52.006;5.924;2024-03-08T06:57:50;42.00;;;33.80;;
73841;SDS011;62184;52.006;5.924;2024-03-08T07:00:17;43.08;;;33.95;;
73841;SDS011;62184;52.006;5.924;2024-03-08T07:02:44;41.97;;;33.47;;
73841;SDS011;62184;52.006;5.924;2024-03-08T07:05:10;44.53;;;35.75;;
73841;SDS011;62184;52.006;5.924;2024-03-08T07:07:36;43.15;;;35.00;;
73841;SDS011;62184;52.006;5.924;2024-03-08T07:10:03;48.25;;;37.35;;
73841;SDS011;62184;52.006;5.924;2024-03-08T07:12:33;40.77;;;32.37;;
73841;SDS011;62184;52.006;5.924;2024-03-08T07:14:59;43.17;;;35.20;;
73841;SDS011;62184;52.006;5.924;2024-03-08T07:17:26;44.15;;;35.55;;
73841;SDS011;62184;52.006;5.924;2024-03-08T07:19:52;42.60;;;34.63;;
73841;SDS011;62184;52.006;5.924;2024-03-08T07:22:19;41.35;;;34.60;;
73841;SDS011;62184;52.006;5.924;2024-03-08T07:24:45;41.40;;;34.38;;
73841;SDS011;62184;52.006;5.924;2024-03-08T07:27:11;43.88;;;37.25;;
73841;SDS011;62184;52.006;5.924;2024-03-08T07:29:40;43.13;;;34.95;;
73841;SDS011;62184;52.006;5.924;2024-03-08T07:32:07;41.92;;;34.55;;
73841;SDS011;62184;52.006;5.924;2024-03-08T07:34:33;42.92;;;34.30;;
73841;SDS011;62184;52.006;5.924;2024-03-08T07:36:59;37.85;;;30.80;;
73841;SDS011;62184;52.006;5.924;2024-03-08T07:39:26;42.10;;;34.83;;
73841;SDS011;62184;52.006;5.924;2024-03-08T07:41:52;40.40;;;33.60;;
73841;SDS011;62184;52.006;5.924;2024-03-08T07:44:19;42.75;;;34.40;;
73841;SDS011;62184;52.006;5.924;2024-03-08T07:46:48;41.75;;;35.45;;
73841;SDS011;62184;52.006;5.924;2024-03-08T07:49:14;41.83;;;33.33;;
73841;SDS011;62184;52.006;5.924;2024-03-08T07:51:40;42.00;;;33.17;;
73841;SDS011;62184;52.006;5.924;2024-03-08T07:54:07;41.95;;;34.25;;
73841;SDS011;62184;52.006;5.924;2024-03-08T07:56:33;40.15;;;33.33;;
73841;SDS011;62184;52.006;5.924;2024-03-08T07:59:00;44.17;;;34.85;;
73841;SDS011;62184;52.006;5.924;2024-03-08T08:01:26;41.03;;;33.85;;
73841;SDS011;62184;52.006;5.924;2024-03-08T08:03:55;43.75;;;36.90;;
73841;SDS011;62184;52.006;5.924;2024-03-08T08:06:24;41.23;;;33.77;;
73841;SDS011;62184;52.006;5.924;2024-03-08T08:08:51;43.00;;;34.97;;
73841;SDS011;62184;52.006;5.924;2024-03-08T08:11:17;39.92;;;33.90;;
73841;SDS011;62184;52.006;5.924;2024-03-08T08:13:44;42.28;;;34.45;;
73841;SDS011;62184;52.006;5.924;2024-03-08T08:16:10;44.60;;;36.05;;
73841;SDS011;62184;52.006;5.924;2024-03-08T08:18:36;40.65;;;33.35;;
73841;SDS011;62184;52.006;5.924;2024-03-08T08:21:05;41.22;;;34.50;;
73841;SDS011;62184;52.006;5.924;2024-03-08T08:23:32;37.92;;;32.60;;
73841;SDS011;62184;52.006;5.924;2024-03-08T08:25:58;39.90;;;33.75;;
73841;SDS011;62184;52.006;5.924;2024-03-08T08:28:25;39.15;;;33.28;;
73841;SDS011;62184;52.006;5.924;2024-03-08T08:30:51;40.42;;;34.13;;
73841;SDS011;62184;52.006;5.924;2024-03-08T08:33:18;40.30;;;35.80;;
73841;SDS011;62184;52.006;5.924;2024-03-08T08:35:44;42.67;;;34.85;;
73841;SDS011;62184;52.006;5.924;2024-03-08T08:38:13;37.20;;;32.97;;
73841;SDS011;62184;52.006;5.924;2024-03-08T08:40:40;39.97;;;34.17;;
73841;SDS011;62184;52.006;5.924;2024-03-08T08:43:06;41.43;;;34.77;;
73841;SDS011;62184;52.006;5.924;2024-03-08T08:45:33;40.83;;;35.47;;
73841;SDS011;62184;52.006;5.924;2024-03-08T08:47:59;38.03;;;31.83;;
73841;SDS011;62184;52.006;5.924;2024-03-08T08:50:26;41.28;;;34.25;;
73841;SDS011;62184;52.006;5.924;2024-03-08T08:52:52;37.13;;;31.77;;
73841;SDS011;62184;52.006;5.924;2024-03-08T08:55:21;40.33;;;33.95;;
73841;SDS011;62184;52.006;5.924;2024-03-08T08:57:48;39.22;;;33.63;;
73841;SDS011;62184;52.006;5.924;2024-03-08T09:00:14;41.92;;;35.83;;
73841;SDS011;62184;52.006;5.924;2024-03-08T09:02:41;42.17;;;35.50;;
73841;SDS011;62184;52.006;5.924;2024-03-08T09:05:08;41.00;;;34.45;;
73841;SDS011;62184;52.006;5.924;2024-03-08T09:07:35;41.38;;;34.22;;
73841;SDS011;62184;52.006;5.924;2024-03-08T09:10:01;41.00;;;35.13;;
73841;SDS011;62184;52.006;5.924;2024-03-08T09:12:31;41.08;;;33.72;;
73841;SDS011;62184;52.006;5.924;2024-03-08T09:14:57;40.10;;;32.72;;
73841;SDS011;62184;52.006;5.924;2024-03-08T09:17:23;41.58;;;35.92;;
73841;SDS011;62184;52.006;5.924;2024-03-08T09:19:50;39.47;;;34.55;;
73841;SDS011;62184;52.006;5.924;2024-03-08T09:22:16;36.58;;;32.65;;
73841;SDS011;62184;52.006;5.924;2024-03-08T09:24:43;39.13;;;34.83;;
73841;SDS011;62184;52.006;5.924;2024-03-08T09:27:09;42.15;;;36.08;;
73841;SDS011;62184;52.006;5.924;2024-03-08T09:29:38;39.10;;;33.35;;
73841;SDS011;62184;52.006;5.924;2024-03-08T09:32:05;41.50;;;35.43;;
73841;SDS011;62184;52.006;5.924;2024-03-08T09:34:31;40.22;;;33.60;;
73841;SDS011;62184;52.006;5.924;2024-03-08T09:36:58;38.42;;;34.22;;
73841;SDS011;62184;52.006;5.924;2024-03-08T09:39:24;39.67;;;33.33;;
73841;SDS011;62184;52.006;5.924;2024-03-08T09:41:50;38.75;;;34.40;;
73841;SDS011;62184;52.006;5.924;2024-03-08T09:44:17;39.50;;;34.65;;
73841;SDS011;62184;52.006;5.924;2024-03-08T09:46:46;40.00;;;34.97;;
73841;SDS011;62184;52.006;5.924;2024-03-08T09:49:13;38.90;;;33.13;;
73841;SDS011;62184;52.006;5.924;2024-03-08T09:51:39;38.58;;;33.92;;
73841;SDS011;62184;52.006;5.924;2024-03-08T09:54:06;37.30;;;33.30;;
73841;SDS011;62184;52.006;5.924;2024-03-08T09:56:33;37.53;;;33.53;;
73841;SDS011;62184;52.006;5.924;2024-03-08T09:59:01;36.60;;;32.60;;
73841;SDS011;62184;52.006;5.924;2024-03-08T10:01:28;40.33;;;36.13;;
73841;SDS011;62184;52.006;5.924;2024-03-08T10:03:57;39.45;;;35.45;;
73841;SDS011;62184;52.006;5.924;2024-03-08T10:06:23;40.67;;;36.53;;
73841;SDS011;62184;52.006;5.924;2024-03-08T10:08:50;42.47;;;38.23;;
73841;SDS011;62184;52.006;5.924;2024-03-08T10:11:16;40.57;;;36.40;;
73841;SDS011;62184;52.006;5.924;2024-03-08T10:13:43;43.05;;;38.55;;
73841;SDS011;62184;52.006;5.924;2024-03-08T10:16:11;41.67;;;37.47;;
73841;SDS011;62184;52.006;5.924;2024-03-08T10:18:38;41.42;;;37.20;;
73841;SDS011;62184;52.006;5.924;2024-03-08T10:21:07;43.65;;;39.15;;
73841;SDS011;62184;52.006;5.924;2024-03-08T10:23:35;41.85;;;37.70;;
73841;SDS011;62184;52.006;5.924;2024-03-08T10:26:11;41.70;;;37.58;;
73841;SDS011;62184;52.006;5.924;2024-03-08T10:28:39;41.55;;;37.45;;
73841;SDS011;62184;52.006;5.924;2024-03-08T10:31:07;42.88;;;38.67;;
73841;SDS011;62184;52.006;5.924;2024-03-08T10:33:33;41.78;;;37.88;;
73841;SDS011;62184;52.006;5.924;2024-03-08T10:36:00;41.72;;;37.63;;
73841;SDS011;62184;52.006;5.924;2024-03-08T10:38:29;40.83;;;36.83;;
73841;SDS011;62184;52.006;5.924;2024-03-08T10:40:57;39.47;;;35.60;;
73841;SDS011;62184;52.006;5.924;2024-03-08T10:43:24;39.43;;;35.63;;
73841;SDS011;62184;52.006;5.924;2024-03-08T10:45:52;40.17;;;36.28;;
73841;SDS011;62184;52.006;5.924;2024-03-08T10:48:32;38.33;;;34.72;;
73841;SDS011;62184;52.006;5.924;2024-03-08T10:51:09;40.05;;;36.20;;
73841;SDS011;62184;52.006;5.924;2024-03-08T10:53:40;38.20;;;34.50;;
73841;SDS011;62184;52.006;5.924;2024-03-08T10:56:08;38.55;;;34.95;;
73841;SDS011;62184;52.006;5.924;2024-03-08T10:58:35;40.20;;;36.30;;
73841;SDS011;62184;52.006;5.924;2024-03-08T11:01:03;37.40;;;33.70;;
73841;SDS011;62184;52.006;5.924;2024-03-08T11:03:45;35.53;;;31.75;;
73841;SDS011;62184;52.006;5.924;2024-03-08T11:06:15;37.35;;;33.47;;
73841;SDS011;62184;52.006;5.924;2024-03-08T11:08:46;35.03;;;31.52;;
73841;SDS011;62184;52.006;5.924;2024-03-08T11:11:25;35.92;;;32.22;;
73841;SDS011;62184;52.006;5.924;2024-03-08T11:13:55;37.38;;;33.50;;
73841;SDS011;62184;52.006;5.924;2024-03-08T11:16:36;37.25;;;33.45;;
73841;SDS011;62184;52.006;5.924;2024-03-08T11:19:05;36.35;;;32.70;;
73841;SDS011;62184;52.006;5.924;2024-03-08T11:21:56;36.23;;;32.60;;
73841;SDS011;62184;52.006;5.924;2024-03-08T11:24:27;34.35;;;30.95;;
73841;SDS011;62184;52.006;5.924;2024-03-08T11:26:56;33.47;;;30.15;;
73841;SDS011;62184;52.006;5.924;2024-03-08T11:29:32;35.55;;;32.05;;
73841;SDS011;62184;52.006;5.924;2024-03-08T11:32:03;35.20;;;31.65;;
73841;SDS011;62184;52.006;5.924;2024-03-08T11:34:31;35.47;;;31.95;;
73841;SDS011;62184;52.006;5.924;2024-03-08T11:36:58;32.47;;;29.08;;
73841;SDS011;62184;52.006;5.924;2024-03-08T11:39:27;33.58;;;30.27;;
73841;SDS011;62184;52.006;5.924;2024-03-08T11:41:55;30.73;;;27.70;;
73841;SDS011;62184;52.006;5.924;2024-03-08T11:44:24;33.08;;;29.83;;
73841;SDS011;62184;52.006;5.924;2024-03-08T11:46:53;34.08;;;30.90;;
73841;SDS011;62184;52.006;5.924;2024-03-08T11:49:19;31.67;;;28.53;;
73841;SDS011;62184;52.006;5.924;2024-03-08T11:51:46;33.55;;;30.25;;
73841;SDS011;62184;52.006;5.924;2024-03-08T11:54:13;29.48;;;26.38;;
73841;SDS011;62184;52.006;5.924;2024-03-08T11:56:42;33.15;;;29.98;;
73841;SDS011;62184;52.006;5.924;2024-03-08T11:59:10;30.75;;;27.67;;
73841;SDS011;62184;52.006;5.924;2024-03-08T12:01:37;32.25;;;29.25;;
73841;SDS011;62184;52.006;5.924;2024-03-08T12:04:04;31.48;;;28.38;;
73841;SDS011;62184;52.006;5.924;2024-03-08T12:06:36;30.03;;;27.03;;
73841;SDS011;62184;52.006;5.924;2024-03-08T12:09:05;30.35;;;27.45;;
73841;SDS011;62184;52.006;5.924;2024-03-08T12:11:34;29.25;;;26.35;;
73841;SDS011;62184;52.006;5.924;2024-03-08T12:14:03;32.42;;;29.42;;
73841;SDS011;62184;52.006;5.924;2024-03-08T12:16:30;30.58;;;27.70;;
73841;SDS011;62184;52.006;5.924;2024-03-08T12:18:56;31.97;;;29.07;;
73841;SDS011;62184;52.006;5.924;2024-03-08T12:21:23;32.85;;;29.85;;
73841;SDS011;62184;52.006;5.924;2024-03-08T12:24:01;33.30;;;30.20;;
73841;SDS011;62184;52.006;5.924;2024-03-08T12:26:30;32.65;;;29.48;;
73841;SDS011;62184;52.006;5.924;2024-03-08T12:29:00;33.38;;;30.20;;
73841;SDS011;62184;52.006;5.924;2024-03-08T12:31:45;33.78;;;30.45;;
73841;SDS011;62184;52.006;5.924;2024-03-08T12:34:12;30.70;;;27.60;;
73841;SDS011;62184;52.006;5.924;2024-03-08T12:36:43;33.43;;;30.13;;
73841;SDS011;62184;52.006;5.924;2024-03-08T12:39:12;29.15;;;26.35;;
73841;SDS011;62184;52.006;5.924;2024-03-08T12:41:39;34.30;;;31.08;;
73841;SDS011;62184;52.006;5.924;2024-03-08T12:44:06;34.53;;;31.23;;
73841;SDS011;62184;52.006;5.924;2024-03-08T12:46:35;35.38;;;32.17;;
73841;SDS011;62184;52.006;5.924;2024-03-08T12:49:01;35.63;;;32.30;;
73841;SDS011;62184;52.006;5.924;2024-03-08T12:51:28;33.55;;;30.35;;
73841;SDS011;62184;52.006;5.924;2024-03-08T12:53:54;34.42;;;31.17;;
73841;SDS011;62184;52.006;5.924;2024-03-08T12:56:28;30.55;;;27.50;;
73841;SDS011;62184;52.006;5.924;2024-03-08T12:58:56;32.97;;;29.87;;
73841;SDS011;62184;52.006;5.924;2024-03-08T13:01:23;32.07;;;28.87;;
73841;SDS011;62184;52.006;5.924;2024-03-08T13:03:52;33.33;;;30.13;;
73841;SDS011;62184;52.006;5.924;2024-03-08T13:06:18;33.57;;;30.30;;
73841;SDS011;62184;52.006;5.924;2024-03-08T13:08:46;33.13;;;29.83;;
73841;SDS011;62184;52.006;5.924;2024-03-08T13:11:12;33.22;;;30.02;;
73841;SDS011;62184;52.006;5.924;2024-03-08T13:13:38;30.30;;;27.27;;
73841;SDS011;62184;52.006;5.924;2024-03-08T13:16:05;31.90;;;28.70;;
73841;SDS011;62184;52.006;5.924;2024-03-08T13:18:32;30.77;;;27.63;;
73841;SDS011;62184;52.006;5.924;2024-03-08T13:21:02;34.08;;;30.77;;
73841;SDS011;62184;52.006;5.924;2024-03-08T13:23:29;35.40;;;32.10;;
73841;SDS011;62184;52.006;5.924;2024-03-08T13:25:55;32.75;;;29.63;;
73841;SDS011;62184;52.006;5.924;2024-03-08T13:28:22;33.97;;;30.75;;
73841;SDS011;62184;52.006;5.924;2024-03-08T13:30:48;32.50;;;29.50;;
73841;SDS011;62184;52.006;5.924;2024-03-08T13:33:15;32.63;;;29.42;;
73841;SDS011;62184;52.006;5.924;2024-03-08T13:35:41;34.80;;;31.42;;
73841;SDS011;62184;52.006;5.924;2024-03-08T13:38:10;35.65;;;32.42;;
73841;SDS011;62184;52.006;5.924;2024-03-08T13:40:37;34.47;;;31.27;;
73841;SDS011;62184;52.006;5.924;2024-03-08T13:43:03;32.97;;;29.77;;
73841;SDS011;62184;52.006;5.924;2024-03-08T13:45:30;33.00;;;29.80;;
73841;SDS011;62184;52.006;5.924;2024-03-08T13:47:56;34.10;;;30.75;;
73841;SDS011;62184;52.006;5.924;2024-03-08T13:50:22;32.25;;;29.10;;
73841;SDS011;62184;52.006;5.924;2024-03-08T13:52:49;31.47;;;28.27;;
73841;SDS011;62184;52.006;5.924;2024-03-08T13:55:19;31.60;;;28.58;;
73841;SDS011;62184;52.006;5.924;2024-03-08T13:57:46;32.27;;;29.07;;
73841;SDS011;62184;52.006;5.924;2024-03-08T14:00:14;32.57;;;29.27;;
73841;SDS011;62184;52.006;5.924;2024-03-08T14:02:41;31.85;;;28.67;;
73841;SDS011;62184;52.006;5.924;2024-03-08T14:05:08;30.80;;;27.73;;
73841;SDS011;62184;52.006;5.924;2024-03-08T14:07:34;31.67;;;28.57;;
73841;SDS011;62184;52.006;5.924;2024-03-08T14:10:00;31.50;;;28.37;;
73841;SDS011;62184;52.006;5.924;2024-03-08T14:12:30;32.80;;;29.60;;
73841;SDS011;62184;52.006;5.924;2024-03-08T14:14:56;31.98;;;28.88;;
73841;SDS011;62184;52.006;5.924;2024-03-08T14:17:22;31.15;;;28.15;;
73841;SDS011;62184;52.006;5.924;2024-03-08T14:19:49;29.58;;;26.63;;
73841;SDS011;62184;52.006;5.924;2024-03-08T14:22:15;31.07;;;27.97;;
73841;SDS011;62184;52.006;5.924;2024-03-08T14:24:41;31.77;;;28.67;;